Terminal Aerodrome Forecast
Issued by NWS

Home | Current Version | Previous Version | Text Only | Print | Product List | Glossary Off
Versions: 1 2 3 4 5 6 7 8 9 10 11 12 13 14 15 16 17 18

000
FTUS43 KMPX 200520
TAFRWF
TAF
KRWF 200520Z 2006/2106 01009KT 6SM BR OVC007
     FM200700 36009KT 2SM -SN BR OVC008
     FM200900 36009KT 3/4SM -SN BR VV005
     FM201100 34008KT 2SM -SN BR OVC009
     FM201300 33010KT P6SM OVC014
     FM202100 31014G20KT P6SM BKN020
     FM210200 29009KT P6SM SKC=

USA.gov is the U.S. government's official web portal to all federal, state and local government web resources and services.